Terminal Aerodrome Forecast
Issued by NWS Charleston, WV

Current Version | Previous Version | Graphics & Text | Print | Product List | Glossary On
Versions: 1 2 3 4 5 6 7 8 9 10 11 12 13 14 15 16 17 18 19 20 21
211
FTUS41 KRLX 221731
TAFPKB
TAF
KPKB 221731Z 2218/2318 03011G18KT P6SM -SHRA OVC025
     FM222000 03009KT P6SM OVC040
     FM230000 04007KT P6SM OVC080
     FM230600 06005KT P6SM BKN100=

USA.gov is the U.S. government's official web portal to all federal, state and local government web resources and services.